Time;durP1;ratioP1;P1;durP2;ratioP2;P2;SDS_P1;SDS_P2;PMS_P1;PMS_P2;Temp;Humidity;BMP_temperature;BMP_pressure;BME280_temperature;BME280_humidity;BME280_pressure;Samples;Min_cycle;Max_cycle;Signal;HPM_P1;HPM_P2
2023/06/22 00:00:11;;;;;;;9.05;8.25;;;;;;;17.04;100.00;101814.56;1035782;28;20046;-44
2023/06/22 00:00:44;;;;;;;11.93;10.10;;;;;;;17.07;100.00;101814.06;1035960;28;20045;-45
2023/06/22 00:01:16;;;;;;;10.68;9.68;;;;;;;17.06;100.00;101818.63;1035816;28;20111;-45
2023/06/22 00:01:47;;;;;;;12.52;9.70;;;;;;;17.02;100.00;101817.47;1033651;28;20053;-44
2023/06/22 00:02:19;;;;;;;10.70;9.63;;;;;;;17.01;100.00;101815.03;1034653;28;20046;-44
2023/06/22 00:02:51;;;;;;;11.38;10.30;;;;;;;16.99;100.00;101818.78;1035610;28;20045;-45
2023/06/22 00:03:25;;;;;;;9.88;8.93;;;;;;;16.96;100.00;101813.81;1033912;28;20432;-44
2023/06/22 00:03:57;;;;;;;10.70;9.63;;;;;;;16.97;100.00;101815.47;1035320;28;20046;-45
2023/06/22 00:04:29;;;;;;;10.55;9.45;;;;;;;17.00;100.00;101814.22;1035747;28;20057;-44
2023/06/22 00:05:00;;;;;;;10.82;9.73;;;;;;;17.04;100.00;101819.94;1035834;28;20508;-44
2023/06/22 00:05:33;;;;;;;11.65;9.35;;;;;;;17.10;100.00;101819.81;1035544;28;20046;-45
2023/06/22 00:06:04;;;;;;;12.25;10.02;;;;;;;17.07;100.00;101808.69;1034991;28;20049;-44
2023/06/22 00:06:36;;;;;;;10.85;9.00;;;;;;;17.06;100.00;101817.81;1035760;28;20050;-45
2023/06/22 00:07:08;;;;;;;11.50;9.60;;;;;;;17.08;100.00;101811.16;1036128;28;20046;-46
2023/06/22 00:07:40;;;;;;;10.75;9.60;;;;;;;17.08;100.00;101805.75;1035716;28;20053;-46
2023/06/22 00:08:12;;;;;;;10.45;9.27;;;;;;;17.12;100.00;101811.50;1035539;28;20508;-45
2023/06/22 00:08:43;;;;;;;10.13;8.85;;;;;;;17.15;100.00;101811.00;1035978;28;20514;-45
2023/06/22 00:09:15;;;;;;;10.52;9.45;;;;;;;17.17;100.00;101804.34;1035771;28;20121;-45
2023/06/22 00:09:47;;;;;;;11.25;9.55;;;;;;;17.18;100.00;101805.16;1035903;28;20042;-45
2023/06/22 00:10:18;;;;;;;10.45;9.05;;;;;;;17.21;100.00;101801.97;1035957;28;20498;-44
2023/06/22 00:10:50;;;;;;;10.43;9.15;;;;;;;17.18;100.00;101810.53;1035586;28;20045;-45
2023/06/22 00:11:23;;;;;;;9.95;8.98;;;;;;;17.15;100.00;101805.63;1035564;28;20192;-46
2023/06/22 00:11:54;;;;;;;11.10;9.90;;;;;;;17.16;100.00;101807.25;1035831;28;20053;-44
2023/06/22 00:12:26;;;;;;;10.52;9.52;;;;;;;17.17;100.00;101806.22;1035964;28;20045;-46
2023/06/22 00:12:58;;;;;;;10.95;9.80;;;;;;;17.20;100.00;101808.44;1035561;28;20611;-45
2023/06/22 00:13:29;;;;;;;10.55;9.63;;;;;;;17.21;100.00;101810.06;1035368;28;20038;-46
2023/06/22 00:14:02;;;;;;;11.40;10.13;;;;;;;17.23;100.00;101808.78;1031427;28;20050;-45
2023/06/22 00:14:33;;;;;;;12.32;9.23;;;;;;;17.18;100.00;101810.53;1031839;28;20057;-43
2023/06/22 00:15:05;;;;;;;12.32;10.40;;;;;;;17.22;100.00;101806.31;1035486;28;20042;-44
2023/06/22 00:15:38;;;;;;;14.02;9.40;;;;;;;17.26;100.00;101802.13;1035491;28;20050;-45
2023/06/22 00:16:10;;;;;;;9.38;8.55;;;;;;;17.30;100.00;101806.78;1035505;28;20042;-45
2023/06/22 00:16:42;;;;;;;10.55;9.23;;;;;;;17.32;100.00;101806.56;1035764;28;20052;-44
2023/06/22 00:17:14;;;;;;;10.32;9.35;;;;;;;17.33;100.00;101805.50;1035112;28;20921;-45
2023/06/22 00:17:46;;;;;;;11.70;9.02;;;;;;;17.31;100.00;101794.16;1035854;28;20041;-45
2023/06/22 00:18:17;;;;;;;14.32;9.52;;;;;;;17.30;100.00;101797.91;1035188;28;20502;-45
2023/06/22 00:18:49;;;;;;;10.00;8.93;;;;;;;17.33;100.00;101797.41;1035326;28;20046;-45
2023/06/22 00:19:21;;;;;;;9.88;8.88;;;;;;;17.34;100.00;101792.84;1036016;28;20138;-44
2023/06/22 00:19:55;;;;;;;10.38;9.10;;;;;;;17.37;100.00;101795.06;1035638;28;20038;-45
2023/06/22 00:20:29;;;;;;;10.65;9.55;;;;;;;17.41;100.00;101794.34;1035742;28;20502;-46
2023/06/22 00:21:02;;;;;;;10.52;9.55;;;;;;;17.44;100.00;101793.88;1035727;28;20172;-45
2023/06/22 00:21:34;;;;;;;10.90;9.80;;;;;;;17.42;100.00;101801.38;1035778;28;20045;-46
2023/06/22 00:22:05;;;;;;;10.00;8.98;;;;;;;17.42;100.00;101801.38;1035749;28;20092;-44
2023/06/22 00:22:38;;;;;;;9.48;8.43;;;;;;;17.42;100.00;101795.97;1035245;28;20121;-44
2023/06/22 00:23:10;;;;;;;11.30;9.45;;;;;;;17.38;100.00;101794.00;1034025;28;20108;-45
2023/06/22 00:23:43;;;;;;;10.35;9.35;;;;;;;17.38;100.00;101794.81;1035580;28;20049;-44
2023/06/22 00:24:14;;;;;;;10.85;9.38;;;;;;;17.40;100.00;101799.97;1035891;28;20129;-44
2023/06/22 00:24:46;;;;;;;12.10;9.95;;;;;;;17.39;100.00;101791.06;1035881;28;20046;-45
2023/06/22 00:25:17;;;;;;;8.95;7.97;;;;;;;17.41;100.00;101796.22;1035780;28;20499;-47
2023/06/22 00:25:49;;;;;;;9.48;8.45;;;;;;;17.42;100.00;101795.97;1035541;28;20038;-45
2023/06/22 00:26:21;;;;;;;9.52;8.52;;;;;;;17.44;100.00;101788.47;1035731;28;20400;-44
2023/06/22 00:26:53;;;;;;;17.17;9.30;;;;;;;17.49;100.00;101790.44;1035465;28;20042;-44
2023/06/22 00:27:25;;;;;;;11.10;8.95;;;;;;;17.44;100.00;101788.47;1035130;28;20046;-45
2023/06/22 00:27:56;;;;;;;8.75;8.02;;;;;;;17.38;100.00;101784.06;1031066;28;20189;-43
2023/06/22 00:28:28;;;;;;;10.10;9.20;;;;;;;17.37;100.00;101786.97;1028037;28;20133;-42
2023/06/22 00:29:00;;;;;;;13.65;9.55;;;;;;;17.34;100.00;101788.28;1027016;28;20151;-45
2023/06/22 00:29:34;;;;;;;10.15;8.52;;;;;;;17.31;100.00;101788.75;1023450;28;20047;-45
2023/06/22 00:30:07;;;;;;;11.30;8.93;;;;;;;17.28;100.00;101790.06;1027704;28;20039;-44
2023/06/22 00:30:38;;;;;;;9.68;8.68;;;;;;;17.28;100.00;101784.66;1032492;28;20054;-44
2023/06/22 00:31:10;;;;;;;9.30;7.82;;;;;;;17.25;100.00;101789.69;1035515;28;20567;-45
2023/06/22 00:31:42;;;;;;;8.65;7.65;;;;;;;17.19;100.00;101783.38;1035183;28;20049;-45
2023/06/22 00:32:13;;;;;;;9.75;8.85;;;;;;;17.24;100.00;101785.34;1035697;28;20526;-45
2023/06/22 00:32:45;;;;;;;8.52;7.72;;;;;;;17.28;100.00;101783.84;1035467;28;20050;-45
2023/06/22 00:33:18;;;;;;;8.43;7.55;;;;;;;17.28;100.00;101790.06;1035545;28;20038;-44
2023/06/22 00:33:50;;;;;;;9.68;8.57;;;;;;;17.27;100.00;101788.41;1035672;28;20488;-44
2023/06/22 00:34:22;;;;;;;11.40;8.18;;;;;;;17.29;100.00;101788.19;1033717;28;20053;-45
2023/06/22 00:34:53;;;;;;;8.57;7.78;;;;;;;17.19;100.00;101786.06;1034913;28;20062;-45
2023/06/22 00:35:29;;;;;;;10.05;8.85;;;;;;;17.24;100.00;101788.88;1035588;28;20153;-45
2023/06/22 00:36:02;;;;;;;9.90;8.13;;;;;;;17.24;100.00;101788.03;1035820;28;20052;-44
2023/06/22 00:36:36;;;;;;;10.05;9.15;;;;;;;17.28;100.00;101783.84;1035672;28;20444;-45
2023/06/22 00:37:07;;;;;;;9.88;8.55;;;;;;;17.24;100.00;101782.66;1031293;28;20377;-44
2023/06/22 00:37:42;;;;;;;11.07;8.73;;;;;;;17.29;100.00;101791.69;1027280;28;20113;-44
2023/06/22 00:38:13;;;;;;;9.63;7.53;;;;;;;17.29;100.00;101785.47;1028335;28;20122;-45
2023/06/22 00:38:46;;;;;;;10.43;8.48;;;;;;;17.30;100.00;101785.25;1032417;28;20054;-44
2023/06/22 00:39:18;;;;;;;10.73;8.43;;;;;;;17.32;100.00;101785.00;1031349;28;20042;-44
2023/06/22 00:39:49;;;;;;;9.63;8.65;;;;;;;17.34;100.00;101777.50;1035361;28;20050;-45
2023/06/22 00:40:21;;;;;;;9.48;8.55;;;;;;;17.28;100.00;101779.28;1035561;28;20084;-44
2023/06/22 00:40:53;;;;;;;9.60;8.45;;;;;;;17.26;100.00;101781.41;1035541;28;20428;-44
2023/06/22 00:41:28;;;;;;;9.07;8.15;;;;;;;17.31;100.00;101778.00;1035724;28;20610;-44
2023/06/22 00:42:00;;;;;;;8.80;7.97;;;;;;;17.31;100.00;101786.06;1035770;28;20087;-45
2023/06/22 00:42:34;;;;;;;9.27;8.35;;;;;;;17.31;100.00;101780.69;1035396;28;20115;-45
2023/06/22 00:43:05;;;;;;;12.52;8.77;;;;;;;17.29;100.00;101769.31;1030936;28;20042;-45
2023/06/22 00:43:37;;;;;;;9.77;8.82;;;;;;;17.31;100.00;101772.59;1030837;28;20385;-45
2023/06/22 00:44:09;;;;;;;10.00;8.77;;;;;;;17.32;100.00;101773.41;1031604;28;20057;-45
2023/06/22 00:44:41;;;;;;;8.60;7.70;;;;;;;17.29;100.00;101763.94;1035581;28;20050;-44
2023/06/22 00:45:12;;;;;;;10.20;9.20;;;;;;;17.26;100.00;101764.41;1035344;28;20555;-46
2023/06/22 00:45:44;;;;;;;10.32;9.32;;;;;;;17.23;100.00;101759.47;1035597;28;20105;-45
2023/06/22 00:46:16;;;;;;;10.50;9.45;;;;;;;17.24;100.00;101758.44;1035883;28;20504;-45
2023/06/22 00:46:47;;;;;;;10.38;9.32;;;;;;;17.22;100.00;101764.06;1035533;28;20042;-45
2023/06/22 00:47:19;;;;;;;10.13;8.52;;;;;;;17.18;100.00;101759.38;1035035;28;20038;-45
2023/06/22 00:47:56;;;;;;;9.52;8.73;;;;;;;17.16;100.00;101758.81;1035544;28;20061;-46
2023/06/22 00:48:29;;;;;;;10.75;9.10;;;;;;;17.14;100.00;101760.91;1035097;28;20054;-44
2023/06/22 00:49:00;;;;;;;12.57;8.73;;;;;;;17.13;100.00;101762.78;1035348;28;20103;-45
2023/06/22 00:49:32;;;;;;;11.00;9.32;;;;;;;17.12;100.00;101761.16;1034623;28;20389;-45
2023/06/22 00:50:06;;;;;;;10.15;9.15;;;;;;;17.15;100.00;101766.06;1035537;28;20492;-45
2023/06/22 00:50:38;;;;;;;9.75;8.80;;;;;;;17.17;100.00;101765.81;1035502;28;20052;-45
2023/06/22 00:51:10;;;;;;;9.23;7.93;;;;;;;17.14;100.00;101771.69;1031023;28;20097;-44
2023/06/22 00:51:45;;;;;;;11.18;8.95;;;;;;;17.14;100.00;101771.69;1032312;28;20046;-45
2023/06/22 00:52:20;;;;;;;10.15;9.15;;;;;;;17.10;100.00;101774.03;1031374;28;20047;-45
2023/06/22 00:52:58;;;;;;;9.90;7.85;;;;;;;17.10;100.00;101773.22;1027279;28;20039;-46
2023/06/22 00:53:34;;;;;;;10.60;9.23;;;;;;;17.13;100.00;101770.88;1029673;28;20109;-44
2023/06/22 00:54:06;;;;;;;9.20;8.40;;;;;;;17.14;100.00;101777.88;1033879;28;20042;-45
2023/06/22 00:54:38;;;;;;;10.07;9.10;;;;;;;17.17;100.00;101776.59;1035680;28;20045;-45
2023/06/22 00:55:10;;;;;;;10.00;8.75;;;;;;;17.14;100.00;101771.69;1035541;28;20064;-45
2023/06/22 00:55:43;;;;;;;10.80;9.20;;;;;;;17.08;100.00;101778.03;1035073;28;20124;-45
2023/06/22 00:56:19;;;;;;;9.82;8.88;;;;;;;17.03;100.00;101775.22;1035792;28;20037;-45
2023/06/22 00:56:56;;;;;;;9.98;8.98;;;;;;;16.98;100.00;101773.22;1035340;28;20503;-45
2023/06/22 00:57:28;;;;;;;9.27;8.38;;;;;;;17.03;100.00;101776.03;1035350;28;20427;-44
2023/06/22 00:57:59;;;;;;;10.48;8.27;;;;;;;17.04;100.00;101771.47;1031196;28;20038;-45
2023/06/22 00:58:52;;;;;;;13.65;8.57;;;;;;;17.04;100.00;101763.41;1031566;28;20088;-44
2023/06/22 00:59:26;;;;;;;10.20;9.18;;;;;;;17.06;100.00;101764.81;1035345;28;20046;-47
2023/06/22 00:59:57;;;;;;;10.32;9.30;;;;;;;17.05;100.00;101773.94;1035080;28;20038;-45
2023/06/22 01:00:29;;;;;;;10.25;9.23;;;;;;;16.98;100.00;101768.69;1035591;28;20050;-44
2023/06/22 01:01:02;;;;;;;9.70;8.77;;;;;;;16.95;100.00;101763.75;1036027;28;20508;-45
2023/06/22 01:01:34;;;;;;;11.15;8.75;;;;;;;16.93;100.00;101765.84;1035315;28;20045;-44
2023/06/22 01:02:06;;;;;;;9.95;8.98;;;;;;;16.94;100.00;101772.88;1035674;28;20041;-45
2023/06/22 01:02:39;;;;;;;12.52;9.07;;;;;;;16.88;100.00;101773.00;1035661;28;20042;-45
2023/06/22 01:03:11;;;;;;;10.27;8.93;;;;;;;16.81;100.00;101772.31;1035914;28;20377;-44
2023/06/22 01:03:42;;;;;;;8.82;8.02;;;;;;;16.81;100.00;101773.13;1035569;28;20057;-45
2023/06/22 01:04:14;;;;;;;10.32;8.98;;;;;;;16.83;100.00;101773.72;1035325;28;20136;-46
2023/06/22 01:04:46;;;;;;;11.10;9.55;;;;;;;16.80;100.00;101773.38;1035832;28;20042;-45
2023/06/22 01:05:22;;;;;;;10.82;9.70;;;;;;;16.75;100.00;101771.38;1035090;28;20152;-44
2023/06/22 01:05:59;;;;;;;11.48;9.27;;;;;;;16.72;100.00;101774.53;1031175;28;20121;-44
2023/06/22 01:06:38;;;;;;;10.50;9.45;;;;;;;16.67;100.00;101774.41;1030975;28;20038;-44
2023/06/22 01:07:34;;;;;;;10.02;9.07;;;;;;;16.56;100.00;101775.19;1033565;28;20046;-45
2023/06/22 01:08:25;;;;;;;11.02;9.50;;;;;;;16.56;100.00;101775.19;1035249;28;20117;-45
2023/06/22 01:09:06;;;;;;;10.82;9.40;;;;;;;16.50;100.00;101776.13;1034858;28;20045;-45
2023/06/22 01:09:57;;;;;;;11.00;8.80;;;;;;;16.48;100.00;101778.25;1031216;28;20472;-45
2023/06/22 01:10:45;;;;;;;10.80;9.68;;;;;;;16.45;100.00;101774.16;1033765;28;20057;-45
2023/06/22 01:11:32;;;;;;;11.93;9.70;;;;;;;16.50;100.00;101773.44;1032157;28;20046;-45
2023/06/22 01:12:06;;;;;;;11.70;10.50;;;;;;;16.53;100.00;101776.50;1031089;28;20034;-45
2023/06/22 01:12:40;;;;;;;14.80;10.50;;;;;;;16.54;100.00;101777.31;1031288;28;20136;-45
2023/06/22 01:13:42;;;;;;;10.98;9.43;;;;;;;16.47;100.00;101781.97;1032388;28;20038;-45
2023/06/22 01:14:43;;;;;;;10.63;8.90;;;;;;;16.43;100.00;101780.78;1035700;28;20496;-44
2023/06/22 01:15:21;;;;;;;10.77;9.73;;;;;;;16.36;100.00;101778.22;1034187;28;20049;-45
2023/06/22 01:16:00;;;;;;;12.40;10.60;;;;;;;16.33;100.00;101782.19;1032269;28;20140;-45
2023/06/22 01:16:37;;;;;;;11.23;10.05;;;;;;;16.28;100.00;101782.06;1034914;28;20034;-44
2023/06/22 01:17:12;;;;;;;14.18;10.80;;;;;;;16.26;100.00;101783.34;1030859;28;20072;-45
2023/06/22 01:17:45;;;;;;;10.90;9.80;;;;;;;16.24;100.00;101783.56;1027180;28;20126;-45
2023/06/22 01:18:19;;;;;;;15.48;10.20;;;;;;;16.25;100.00;101787.09;1027264;28;20042;-45
2023/06/22 01:18:52;;;;;;;10.65;9.55;;;;;;;16.30;100.00;101782.66;1025232;28;20315;-45
2023/06/22 01:19:46;;;;;;;11.77;10.57;;;;;;;16.35;100.00;101785.47;1026768;28;20619;-45
2023/06/22 01:20:20;;;;;;;13.93;11.35;;;;;;;16.40;100.00;101787.44;1027246;28;20430;-46
2023/06/22 01:20:57;;;;;;;12.50;9.65;;;;;;;16.45;100.00;101784.09;1027257;28;20046;-45
2023/06/22 01:21:31;;;;;;;11.98;9.75;;;;;;;16.46;100.00;101781.16;1027129;28;20444;-46
2023/06/22 01:22:05;;;;;;;10.55;9.50;;;;;;;16.50;100.00;101786.91;1025133;28;20544;-45
2023/06/22 01:22:49;;;;;;;10.85;9.80;;;;;;;16.53;100.00;101787.25;1025025;28;20055;-45
2023/06/22 01:23:58;;;;;;;10.32;9.40;;;;;;;16.56;100.00;101780.56;1029645;28;20272;-45
2023/06/22 01:24:37;;;;;;;11.95;8.40;;;;;;;16.50;100.00;101782.34;1033544;28;20428;-46
2023/06/22 01:25:13;;;;;;;10.43;9.23;;;;;;;16.52;100.00;101782.09;1027379;28;20078;-44
2023/06/22 01:25:57;;;;;;;11.95;10.60;;;;;;;16.49;100.00;101787.94;1023445;29;20074;-44
2023/06/22 01:26:46;;;;;;;10.25;9.25;;;;;;;16.48;100.00;101778.25;1026963;28;20589;-45
2023/06/22 01:27:32;;;;;;;14.32;8.15;;;;;;;16.52;100.00;101791.00;1035575;28;20519;-45
2023/06/22 01:28:28;;;;;;;10.57;9.05;;;;;;;16.47;100.00;101782.81;1035090;28;20053;-46
2023/06/22 01:29:00;;;;;;;9.45;8.55;;;;;;;16.49;100.00;101777.19;1035257;28;20050;-45
2023/06/22 01:29:33;;;;;;;8.55;7.70;;;;;;;16.46;100.00;101774.97;1031327;28;20117;-47
2023/06/22 01:30:05;;;;;;;9.25;8.35;;;;;;;16.47;100.00;101776.59;1035087;28;20096;-45
2023/06/22 01:30:40;;;;;;;9.43;8.57;;;;;;;16.51;100.00;101780.47;1030956;28;20038;-47
2023/06/22 01:31:14;;;;;;;9.25;8.35;;;;;;;16.45;100.00;101774.16;1032069;28;20046;-45
2023/06/22 01:31:48;;;;;;;9.13;8.23;;;;;;;16.50;100.00;101782.34;1029512;28;20054;-45
2023/06/22 01:32:20;;;;;;;8.57;7.68;;;;;;;16.53;100.00;101779.19;1025070;28;20091;-45
2023/06/22 01:32:53;;;;;;;9.57;8.35;;;;;;;16.54;100.00;101782.69;1030289;28;20046;-46
2023/06/22 01:33:24;;;;;;;9.63;7.63;;;;;;;16.54;100.00;101778.13;1031291;28;20424;-45
2023/06/22 01:33:59;;;;;;;10.00;8.77;;;;;;;16.52;100.00;101774.03;1035546;28;20133;-45
2023/06/22 01:34:31;;;;;;;8.90;8.05;;;;;;;16.50;100.00;101773.44;1033620;28;20039;-45
2023/06/22 01:35:05;;;;;;;10.60;9.50;;;;;;;16.59;100.00;101780.94;1035131;28;20042;-45
2023/06/22 01:35:37;;;;;;;10.20;9.25;;;;;;;16.56;100.00;101775.19;1031101;28;20053;-44
2023/06/22 01:36:09;;;;;;;9.40;8.55;;;;;;;16.51;100.00;101777.78;1029474;28;20054;-44
2023/06/22 01:36:43;;;;;;;9.80;8.88;;;;;;;16.47;100.00;101773.91;1027035;28;20539;-46
2023/06/22 01:37:15;;;;;;;9.70;8.73;;;;;;;16.45;100.00;101770.63;1022914;28;20051;-45
2023/06/22 01:37:47;;;;;;;9.98;8.98;;;;;;;16.40;100.00;101771.31;1023382;28;20409;-46
2023/06/22 01:38:19;;;;;;;11.55;9.30;;;;;;;16.38;100.00;101768.84;1028154;28;20059;-44
2023/06/22 01:38:54;;;;;;;12.15;8.98;;;;;;;16.32;100.00;101777.84;1032308;28;20066;-45
2023/06/22 01:39:26;;;;;;;9.35;8.35;;;;;;;16.28;100.00;101773.19;1034695;28;20093;-44
2023/06/22 01:39:58;;;;;;;9.73;8.82;;;;;;;16.28;100.00;101773.19;1035107;28;20504;-47
2023/06/22 01:40:30;;;;;;;8.88;8.07;;;;;;;16.27;100.00;101766.97;1035433;28;20392;-44
2023/06/22 01:41:02;;;;;;;10.70;9.45;;;;;;;16.17;100.00;101769.44;1031157;28;20050;-46
2023/06/22 01:41:36;;;;;;;12.82;9.02;;;;;;;16.17;100.00;101766.75;1023724;28;20051;-44
2023/06/22 01:42:08;;;;;;;9.18;8.27;;;;;;;16.19;100.00;101769.19;1027002;28;20046;-45
2023/06/22 01:42:40;;;;;;;9.70;8.70;;;;;;;16.17;100.00;101760.53;1028345;28;20517;-42
2023/06/22 01:43:11;;;;;;;9.63;8.73;;;;;;;16.17;100.00;101761.38;1031770;28;20053;-42
2023/06/22 01:43:43;;;;;;;9.32;8.35;;;;;;;16.20;100.00;101771.66;1034832;28;20042;-44
2023/06/22 01:44:16;;;;;;;10.15;8.50;;;;;;;16.17;100.00;101760.53;1026444;28;20054;-42
2023/06/22 01:44:47;;;;;;;10.73;8.05;;;;;;;16.19;100.00;101764.63;1026732;28;20047;-44
2023/06/22 01:45:19;;;;;;;8.75;7.95;;;;;;;16.19;100.00;101769.19;1027547;28;20053;-44
2023/06/22 01:45:51;;;;;;;10.57;9.50;;;;;;;16.21;100.00;101767.91;1032102;28;20039;-45
2023/06/22 01:46:23;;;;;;;11.43;8.45;;;;;;;16.24;100.00;101767.44;1026732;28;20053;-44
2023/06/22 01:46:55;;;;;;;8.75;7.95;;;;;;;16.22;100.00;101764.19;1026795;28;20043;-44
2023/06/22 01:47:27;;;;;;;9.23;8.32;;;;;;;16.22;100.00;101769.56;1021873;29;20051;-45
2023/06/22 01:48:00;;;;;;;9.70;8.77;;;;;;;16.22;100.00;101764.19;1020662;28;20043;-45
2023/06/22 01:48:32;;;;;;;9.63;8.30;;;;;;;16.25;100.00;101765.56;1027903;28;20042;-44
2023/06/22 01:49:06;;;;;;;9.77;8.77;;;;;;;16.25;100.00;101761.03;1032252;28;20038;-44
2023/06/22 01:49:38;;;;;;;10.25;8.43;;;;;;;16.23;100.00;101763.13;1032228;28;20171;-45
2023/06/22 01:50:11;;;;;;;11.75;10.02;;;;;;;16.19;100.00;101770.00;1035396;28;20116;-44
2023/06/22 01:50:43;;;;;;;9.63;7.68;;;;;;;16.22;100.00;101769.56;1035194;28;20120;-44
2023/06/22 01:51:15;;;;;;;11.10;8.35;;;;;;;16.25;100.00;101769.09;1027765;28;20768;-45
2023/06/22 01:51:47;;;;;;;10.52;8.63;;;;;;;16.28;100.00;101768.63;1030920;28;20050;-44
2023/06/22 01:52:20;;;;;;;9.07;8.07;;;;;;;16.28;100.00;101774.00;1030956;28;20038;-46
2023/06/22 01:52:52;;;;;;;11.48;8.95;;;;;;;16.30;100.00;101771.91;1031900;28;20042;-45
2023/06/22 01:53:24;;;;;;;10.57;9.05;;;;;;;16.37;100.00;101767.22;1035393;28;20052;-45
2023/06/22 01:53:56;;;;;;;9.38;8.40;;;;;;;16.39;100.00;101773.19;1035545;28;20046;-44
2023/06/22 01:54:28;;;;;;;12.18;9.10;;;;;;;16.31;100.00;101773.53;1035581;28;20041;-44
2023/06/22 01:55:00;;;;;;;9.32;8.43;;;;;;;16.28;100.00;101767.81;1035487;28;20562;-44
2023/06/22 01:55:31;;;;;;;12.45;8.35;;;;;;;16.32;100.00;101775.16;1035750;28;20061;-42
2023/06/22 01:56:03;;;;;;;8.93;8.13;;;;;;;16.34;100.00;101775.75;1035671;28;20046;-42
2023/06/22 01:56:35;;;;;;;10.00;8.63;;;;;;;16.36;100.00;101779.03;1034942;28;20034;-44
2023/06/22 01:57:07;;;;;;;9.50;8.45;;;;;;;16.35;100.00;101769.31;1031333;28;20455;-44
2023/06/22 01:57:39;;;;;;;9.70;8.73;;;;;;;16.34;100.00;101773.06;1026641;28;20046;-44
2023/06/22 01:58:11;;;;;;;9.73;8.43;;;;;;;16.34;100.00;101759.63;1022895;28;20064;-43
2023/06/22 01:58:50;;;;;;;9.48;8.40;;;;;;;16.36;100.00;101765.59;1024465;28;20482;-44
2023/06/22 01:59:37;;;;;;;9.77;8.80;;;;;;;16.39;100.00;101759.75;1028550;28;20525;-44
2023/06/22 02:00:14;;;;;;;12.13;8.38;;;;;;;16.44;100.00;101764.44;1030287;28;20560;-44
2023/06/22 02:00:52;;;;;;;8.48;7.60;;;;;;;16.47;100.00;101766.66;1027255;28;20046;-45
2023/06/22 02:01:27;;;;;;;8.90;7.80;;;;;;;16.42;100.00;101757.63;1030627;28;20042;-44
2023/06/22 02:02:03;;;;;;;8.65;7.85;;;;;;;16.39;100.00;101759.75;1029190;28;20065;-45
2023/06/22 02:02:54;;;;;;;8.98;7.65;;;;;;;16.44;100.00;101760.94;1025901;28;20047;-44
2023/06/22 02:03:30;;;;;;;12.40;7.85;;;;;;;16.44;100.00;101758.25;1027129;28;20547;-44
2023/06/22 02:04:20;;;;;;;11.75;7.53;;;;;;;16.39;100.00;101748.16;1027428;28;20331;-45
2023/06/22 02:05:18;;;;;;;8.55;7.75;;;;;;;16.40;100.00;101752.50;1033020;28;20084;-45
2023/06/22 02:06:06;;;;;;;7.95;7.15;;;;;;;16.37;100.00;101752.97;1032177;28;21064;-44
2023/06/22 02:06:39;;;;;;;8.20;7.40;;;;;;;16.36;100.00;101749.44;1035320;28;20491;-45
2023/06/22 02:07:14;;;;;;;9.45;7.68;;;;;;;16.33;100.00;101757.97;1030929;28;20043;-45
2023/06/22 02:07:50;;;;;;;11.38;8.60;;;;;;;16.30;100.00;101749.56;1033358;28;20579;-45
2023/06/22 02:08:25;;;;;;;9.00;8.10;;;;;;;16.27;100.00;101752.72;1030462;28;20053;-45
2023/06/22 02:08:59;;;;;;;7.57;6.88;;;;;;;16.24;100.00;101755.88;1034615;28;20049;-45
2023/06/22 02:09:31;;;;;;;10.30;7.55;;;;;;;16.20;100.00;101750.16;1029087;28;20061;-44
2023/06/22 02:10:07;;;;;;;9.52;8.57;;;;;;;16.23;100.00;101748.88;1020391;29;20047;-45
2023/06/22 02:10:41;;;;;;;10.52;9.05;;;;;;;16.17;100.00;101756.00;1022940;29;20149;-44
2023/06/22 02:11:13;;;;;;;11.48;8.85;;;;;;;16.14;100.00;101755.59;1020739;29;20044;-44
2023/06/22 02:11:47;;;;;;;8.70;7.90;;;;;;;16.14;100.00;101760.97;1023433;28;20058;-46
2023/06/22 02:12:22;;;;;;;9.75;8.80;;;;;;;16.11;100.00;101759.56;1028042;28;20113;-44
2023/06/22 02:12:54;;;;;;;9.98;8.15;;;;;;;16.13;100.00;101760.16;1028517;28;20047;-43
2023/06/22 02:13:27;;;;;;;11.45;8.20;;;;;;;16.15;100.00;101758.06;1028448;28;20436;-42
2023/06/22 02:13:59;;;;;;;9.20;8.30;;;;;;;16.19;100.00;101759.25;1031204;28;20133;-44
2023/06/22 02:14:31;;;;;;;10.52;9.43;;;;;;;16.15;100.00;101763.44;1031785;28;20045;-44
2023/06/22 02:15:03;;;;;;;10.23;9.18;;;;;;;16.13;100.00;101760.16;1031490;28;20060;-44
2023/06/22 02:15:35;;;;;;;11.30;10.07;;;;;;;16.07;100.00;101771.84;1035365;28;20096;-45
2023/06/22 02:16:07;;;;;;;13.68;9.38;;;;;;;16.10;100.00;101766.00;1031153;28;20039;-45
2023/06/22 02:16:38;;;;;;;10.75;9.23;;;;;;;16.06;100.00;101760.28;1027805;28;20118;-45
2023/06/22 02:17:10;;;;;;;11.07;10.07;;;;;;;16.02;100.00;101764.47;1026786;28;20837;-44
2023/06/22 02:17:44;;;;;;;9.80;8.90;;;;;;;15.95;100.00;101765.63;1021895;28;20466;-46
2023/06/22 02:18:16;;;;;;;10.13;9.10;;;;;;;15.98;100.00;101768.66;1027860;28;20043;-45
2023/06/22 02:18:50;;;;;;;10.75;9.68;;;;;;;15.96;100.00;101760.03;1027985;28;20035;-46
2023/06/22 02:19:23;;;;;;;11.52;9.88;;;;;;;15.90;100.00;101757.44;1032499;28;20042;-44
2023/06/22 02:19:55;;;;;;;11.27;9.15;;;;;;;15.89;100.00;101763.84;1035201;28;20042;-46
2023/06/22 02:20:28;;;;;;;11.25;9.70;;;;;;;15.88;100.00;101763.00;1035285;28;20068;-44
2023/06/22 02:21:00;;;;;;;14.68;10.50;;;;;;;15.87;100.00;101760.56;1034615;28;20034;-45
2023/06/22 02:21:32;;;;;;;10.95;9.77;;;;;;;15.86;100.00;101758.91;1035206;28;20042;-45
2023/06/22 02:22:04;;;;;;;12.70;10.93;;;;;;;15.89;100.00;101759.31;1035203;28;20447;-45
2023/06/22 02:22:36;;;;;;;12.10;10.50;;;;;;;15.88;100.00;101762.19;1035103;28;20049;-45
2023/06/22 02:23:08;;;;;;;11.45;10.30;;;;;;;15.89;100.00;101758.47;1035072;28;20093;-46
2023/06/22 02:23:40;;;;;;;12.15;10.85;;;;;;;15.88;100.00;101767.56;1035427;28;20050;-45
2023/06/22 02:24:11;;;;;;;11.50;10.38;;;;;;;15.95;100.00;101765.63;1030586;28;20104;-45
2023/06/22 02:24:43;;;;;;;13.27;10.05;;;;;;;16.01;100.00;101759.31;1031578;28;20050;-45
2023/06/22 02:25:15;;;;;;;11.98;10.73;;;;;;;16.03;100.00;101765.28;1033102;28;20050;-44
2023/06/22 02:25:49;;;;;;;12.10;10.55;;;;;;;16.07;100.00;101755.72;1031597;28;20057;-46
2023/06/22 02:26:20;;;;;;;13.20;11.15;;;;;;;16.04;100.00;101762.38;1031061;28;20428;-46
2023/06/22 02:26:52;;;;;;;11.85;10.57;;;;;;;16.02;100.00;101761.78;1031404;28;20046;-45
2023/06/22 02:27:23;;;;;;;15.43;10.10;;;;;;;16.01;100.00;101762.00;1026981;28;20149;-45
2023/06/22 02:27:55;;;;;;;11.35;10.27;;;;;;;15.97;100.00;101758.16;1026992;28;20057;-44
2023/06/22 02:28:27;;;;;;;11.15;10.05;;;;;;;15.96;100.00;101753.81;1027282;28;20533;-44
2023/06/22 02:28:58;;;;;;;11.70;10.55;;;;;;;15.95;100.00;101752.19;1027070;28;20444;-44
2023/06/22 02:29:30;;;;;;;11.57;10.32;;;;;;;15.94;100.00;101761.31;1030932;28;20038;-45
2023/06/22 02:30:02;;;;;;;10.63;9.55;;;;;;;15.91;100.00;101761.75;1031655;28;20493;-45
2023/06/22 02:30:35;;;;;;;12.40;10.90;;;;;;;15.88;100.00;101756.81;1031311;28;20031;-44
2023/06/22 02:31:07;;;;;;;12.52;11.32;;;;;;;15.86;100.00;101756.22;1031385;28;20401;-45
2023/06/22 02:31:39;;;;;;;13.25;11.95;;;;;;;15.88;100.00;101756.81;1030831;28;20047;-45
2023/06/22 02:32:11;;;;;;;12.35;10.93;;;;;;;15.93;100.00;101754.28;1031289;28;20035;-45
2023/06/22 02:32:43;;;;;;;12.77;10.68;;;;;;;15.94;100.00;101761.31;1030821;28;20180;-45
2023/06/22 02:33:15;;;;;;;13.07;11.73;;;;;;;15.94;100.00;101756.75;1031098;28;20404;-44
2023/06/22 02:33:48;;;;;;;12.52;10.55;;;;;;;15.97;100.00;101760.84;1030519;28;20050;-45
2023/06/22 02:34:23;;;;;;;12.10;10.90;;;;;;;16.01;100.00;101751.25;1025357;28;20418;-45
2023/06/22 02:34:55;;;;;;;12.05;10.80;;;;;;;16.01;100.00;101751.25;1027040;28;20162;-45
2023/06/22 02:35:31;;;;;;;13.38;11.45;;;;;;;16.01;100.00;101753.94;1024442;28;20045;-44
2023/06/22 02:36:05;;;;;;;10.98;9.90;;;;;;;16.02;100.00;101752.91;1027692;28;20046;-45